createdAt,value
2023-03-18T00:01:56.425Z,2.79
2023-03-18T00:05:13.922Z,2.78
2023-03-18T00:08:30.095Z,2.71
2023-03-18T00:11:46.952Z,2.66
2023-03-18T00:15:03.164Z,2.61
2023-03-18T00:18:19.508Z,2.34
2023-03-18T00:21:35.779Z,2.22
2023-03-18T00:24:53.367Z,2.27
2023-03-18T00:28:10.065Z,2.30
2023-03-18T00:31:26.553Z,2.35
2023-03-18T00:34:42.859Z,2.35
2023-03-18T00:37:59.266Z,2.31
2023-03-18T00:41:18.740Z,2.28
2023-03-18T00:44:35.276Z,2.18
2023-03-18T00:47:52.441Z,2.13
2023-03-18T00:51:12.319Z,2.23
2023-03-18T00:54:29.160Z,2.24
2023-03-18T00:57:46.227Z,2.26
2023-03-18T01:01:02.247Z,2.28
2023-03-18T01:04:18.398Z,2.29
2023-03-18T01:07:37.228Z,2.28
2023-03-18T01:10:53.430Z,2.22
2023-03-18T01:14:10.105Z,2.15
2023-03-18T01:17:26.420Z,2.08
2023-03-18T01:20:43.317Z,2.04
2023-03-18T01:24:01.217Z,1.92
2023-03-18T01:27:19.306Z,1.84
2023-03-18T01:30:36.256Z,1.77
2023-03-18T01:33:53.284Z,1.80
2023-03-18T01:37:10.195Z,1.81
2023-03-18T01:40:29.421Z,1.69
2023-03-18T01:43:49.400Z,1.63
2023-03-18T01:47:05.564Z,1.56
2023-03-18T01:50:25.761Z,1.47
2023-03-18T01:53:47.161Z,1.45
2023-03-18T01:57:04.366Z,1.45
2023-03-18T02:00:24.182Z,1.45
2023-03-18T02:03:41.010Z,1.50
2023-03-18T02:06:57.719Z,1.48
2023-03-18T02:10:19.253Z,1.50
2023-03-18T02:13:38.041Z,1.47
2023-03-18T02:16:59.603Z,1.51
2023-03-18T02:20:25.308Z,1.55
2023-03-18T02:23:48.290Z,1.53
2023-03-18T02:27:08.886Z,1.46
2023-03-18T02:30:32.431Z,1.39
2023-03-18T02:33:50.573Z,1.32
2023-03-18T02:37:08.635Z,1.36
2023-03-18T02:40:30.160Z,1.39
2023-03-18T02:43:46.884Z,1.42
2023-03-18T02:47:06.795Z,1.32
2023-03-18T02:50:22.604Z,1.26
2023-03-18T02:53:38.984Z,1.31
2023-03-18T02:56:55.354Z,1.32
2023-03-18T03:00:14.383Z,1.17
2023-03-18T03:03:32.003Z,1.09
2023-03-18T03:06:48.981Z,1.00
2023-03-18T03:10:06.435Z,1.03
2023-03-18T03:13:22.946Z,1.02
2023-03-18T03:16:43.165Z,1.00
2023-03-18T03:19:59.174Z,1.03
2023-03-18T03:23:18.292Z,0.98
2023-03-18T03:26:37.202Z,1.04
2023-03-18T03:29:54.906Z,1.01
2023-03-18T03:33:12.103Z,0.94
2023-03-18T03:36:29.013Z,0.99
2023-03-18T03:39:45.408Z,1.02
2023-03-18T03:43:01.915Z,1.08
2023-03-18T03:46:20.029Z,1.08
2023-03-18T03:49:36.150Z,0.98
2023-03-18T03:52:53.721Z,0.95
2023-03-18T03:56:12.116Z,0.98
2023-03-18T03:59:28.960Z,0.96
2023-03-18T04:03:05.602Z,0.96
2023-03-18T04:06:21.675Z,0.94
2023-03-18T04:09:39.772Z,0.88
2023-03-18T04:12:56.855Z,0.79
2023-03-18T04:16:15.225Z,0.81
2023-03-18T04:19:31.613Z,0.79
2023-03-18T04:22:47.842Z,0.69
2023-03-18T04:26:06.129Z,0.68
2023-03-18T04:29:23.527Z,0.66
2023-03-18T04:32:40.148Z,0.62
2023-03-18T04:35:57.258Z,0.62
2023-03-18T04:39:14.116Z,0.54
2023-03-18T04:42:30.449Z,0.43
2023-03-18T04:45:47.037Z,0.31
2023-03-18T04:49:03.753Z,0.13
2023-03-18T04:52:21.071Z,0.00
2023-03-18T04:55:37.706Z,-0.09
2023-03-18T04:58:55.667Z,-0.17
2023-03-18T05:02:13.665Z,-0.17
2023-03-18T05:05:30.688Z,-0.23
2023-03-18T05:08:47.409Z,-0.12
2023-03-18T05:12:03.689Z,-0.11
2023-03-18T05:15:24.269Z,-0.19
2023-03-18T05:18:42.141Z,-0.17
2023-03-18T05:21:58.415Z,-0.07
2023-03-18T05:25:16.927Z,-0.02
2023-03-18T05:28:34.847Z,0.10
2023-03-18T05:31:52.583Z,0.36
2023-03-18T05:35:09.910Z,0.61
2023-03-18T05:38:27.609Z,0.79
2023-03-18T05:41:44.493Z,0.94
2023-03-18T05:45:02.968Z,1.19
2023-03-18T05:48:19.771Z,1.29
2023-03-18T05:51:38.553Z,1.38
2023-03-18T05:54:56.438Z,1.45
2023-03-18T05:58:14.582Z,1.63
2023-03-18T06:01:31.614Z,1.78
2023-03-18T06:04:48.544Z,1.88
2023-03-18T06:08:05.175Z,1.92
2023-03-18T06:11:24.081Z,1.92
2023-03-18T06:14:40.430Z,1.84
2023-03-18T06:17:58.281Z,2.03
2023-03-18T06:21:16.175Z,2.20
2023-03-18T06:24:32.591Z,2.30
2023-03-18T06:27:48.758Z,2.51
2023-03-18T06:31:07.027Z,2.67
2023-03-18T06:34:23.418Z,2.63
2023-03-18T06:37:43.576Z,3.07
2023-03-18T06:41:02.850Z,3.27
2023-03-18T06:44:20.599Z,3.88
2023-03-18T06:47:37.907Z,4.67
2023-03-18T06:50:55.497Z,5.22
2023-03-18T06:54:11.626Z,5.55
2023-03-18T06:57:27.949Z,6.56
2023-03-18T07:00:46.136Z,7.12
2023-03-18T07:04:04.031Z,7.58
2023-03-18T07:07:21.938Z,7.46
2023-03-18T07:10:40.389Z,7.65
2023-03-18T07:13:58.632Z,7.86
2023-03-18T07:17:21.196Z,7.87
2023-03-18T07:20:37.431Z,8.24
2023-03-18T07:23:55.565Z,8.71
2023-03-18T07:27:14.118Z,9.06
2023-03-18T07:30:31.294Z,9.23
2023-03-18T07:33:50.603Z,9.56
2023-03-18T07:37:07.880Z,9.93
2023-03-18T07:40:25.178Z,10.47
2023-03-18T07:43:44.394Z,10.41
2023-03-18T07:47:00.844Z,10.07
2023-03-18T07:50:21.809Z,10.67
2023-03-18T07:53:42.136Z,10.81
2023-03-18T07:56:58.931Z,11.10
2023-03-18T08:00:19.523Z,11.55
2023-03-18T08:03:37.942Z,11.39
2023-03-18T08:06:54.286Z,11.49
2023-03-18T08:10:12.702Z,11.65
2023-03-18T08:13:29.790Z,11.73
2023-03-18T08:16:46.412Z,11.80
2023-03-18T08:20:02.705Z,11.03
2023-03-18T08:23:20.165Z,10.96
2023-03-18T08:26:36.619Z,10.83
2023-03-18T08:29:53.198Z,11.02
2023-03-18T08:33:09.705Z,10.83
2023-03-18T08:36:29.598Z,10.91
2023-03-18T08:39:45.774Z,10.74
2023-03-18T08:43:02.408Z,10.49
2023-03-18T08:46:18.972Z,10.87
2023-03-18T08:49:35.632Z,10.71
2023-03-18T08:52:54.447Z,11.16
2023-03-18T08:56:15.417Z,11.34
2023-03-18T08:59:31.776Z,11.66
2023-03-18T09:02:48.626Z,11.89
2023-03-18T09:06:05.603Z,11.96
2023-03-18T09:09:26.301Z,12.05
2023-03-18T09:12:40.187Z,12.42
2023-03-18T09:15:56.493Z,12.50
2023-03-18T09:19:13.032Z,12.68
2023-03-18T09:22:29.610Z,12.73
2023-03-18T09:25:46.169Z,12.55
2023-03-18T09:29:05.253Z,12.63
2023-03-18T09:32:21.860Z,12.65
2023-03-18T09:35:38.660Z,12.27
2023-03-18T09:38:54.866Z,12.53
2023-03-18T09:42:24.548Z,12.97
2023-03-18T09:45:47.751Z,13.33
2023-03-18T09:49:32.174Z,13.06
2023-03-18T09:52:56.188Z,13.54
2023-03-18T09:56:13.386Z,14.00
2023-03-18T09:59:34.904Z,14.15
2023-03-18T10:02:55.345Z,13.72
2023-03-18T10:06:20.460Z,13.72
2023-03-18T10:09:40.319Z,13.56
2023-03-18T10:13:01.882Z,13.69
2023-03-18T10:16:25.120Z,14.00
2023-03-18T10:19:42.878Z,14.55
2023-03-18T10:23:12.300Z,14.94
2023-03-18T10:26:36.828Z,14.96
2023-03-18T10:29:59.270Z,14.87
2023-03-18T10:33:22.956Z,15.00
2023-03-18T10:36:47.528Z,15.35
2023-03-18T10:40:11.401Z,15.52
2023-03-18T10:43:31.243Z,15.48
2023-03-18T10:46:50.209Z,15.28
2023-03-18T10:50:11.625Z,15.54
2023-03-18T10:53:32.503Z,14.96
2023-03-18T10:56:53.630Z,14.94
2023-03-18T11:00:12.019Z,14.86
2023-03-18T11:03:36.429Z,15.22
2023-03-18T11:06:58.538Z,15.43
2023-03-18T11:10:31.355Z,15.62
2023-03-18T11:13:53.951Z,15.75
2023-03-18T11:17:14.901Z,15.47
2023-03-18T11:20:41.946Z,15.46
2023-03-18T11:24:15.773Z,15.65
2023-03-18T11:27:46.817Z,15.76
2023-03-18T11:31:07.272Z,15.65
2023-03-18T11:34:28.645Z,15.59
2023-03-18T11:37:47.015Z,15.42
2023-03-18T11:41:13.944Z,15.29
2023-03-18T11:44:36.907Z,15.23
2023-03-18T11:47:54.553Z,15.03
2023-03-18T11:51:38.844Z,15.07
2023-03-18T11:55:31.618Z,14.98
2023-03-18T11:59:18.554Z,14.90
2023-03-18T12:02:58.665Z,14.80
2023-03-18T12:06:29.267Z,14.72
2023-03-18T12:09:50.587Z,14.66
2023-03-18T12:13:38.443Z,14.43
2023-03-18T12:17:09.859Z,14.26
2023-03-18T12:20:56.188Z,14.34
2023-03-18T12:24:40.804Z,14.24
2023-03-18T12:28:01.915Z,14.15
2023-03-18T12:31:54.361Z,14.14
2023-03-18T12:35:36.571Z,14.07
2023-03-18T12:39:47.091Z,14.01
2023-03-18T12:43:46.234Z,14.02
2023-03-18T12:47:10.943Z,13.96
2023-03-18T12:50:32.682Z,13.87
2023-03-18T12:53:55.461Z,13.84
2023-03-18T12:57:18.304Z,13.82
2023-03-18T13:00:39.150Z,13.82
2023-03-18T13:04:05.343Z,13.81
2023-03-18T13:07:27.123Z,13.81
2023-03-18T13:10:45.075Z,13.81
2023-03-18T13:14:06.515Z,13.70
2023-03-18T13:17:27.178Z,13.68
2023-03-18T13:20:46.275Z,13.74
2023-03-18T13:24:27.277Z,13.74
2023-03-18T13:27:58.828Z,13.71
2023-03-18T13:31:28.610Z,13.74
2023-03-18T13:35:31.269Z,13.85
2023-03-18T13:39:34.679Z,13.74
2023-03-18T13:42:54.766Z,13.71
2023-03-18T13:46:18.300Z,13.70
2023-03-18T13:49:39.380Z,13.70
2023-03-18T13:52:58.734Z,13.64
2023-03-18T13:56:33.713Z,13.63
2023-03-18T13:59:57.162Z,13.63
2023-03-18T14:03:30.679Z,13.64
2023-03-18T14:07:02.286Z,13.63
2023-03-18T14:10:27.172Z,13.62
2023-03-18T14:13:45.848Z,13.65
2023-03-18T14:17:03.841Z,13.64
2023-03-18T14:20:36.834Z,13.66
2023-03-18T14:23:58.496Z,13.65
2023-03-18T14:27:26.959Z,13.66
2023-03-18T14:31:04.837Z,13.65
2023-03-18T14:34:43.847Z,13.66
2023-03-18T14:38:12.461Z,13.68
2023-03-18T14:41:34.172Z,13.77
2023-03-18T14:44:57.977Z,13.79
2023-03-18T14:48:22.244Z,13.81
2023-03-18T14:51:43.037Z,13.90
2023-03-18T14:55:02.481Z,13.91
2023-03-18T14:58:29.000Z,13.90
2023-03-18T15:01:51.438Z,13.89
2023-03-18T15:05:11.673Z,13.82
2023-03-18T15:08:46.830Z,13.79
2023-03-18T15:11:56.677Z,13.80
2023-03-18T15:15:25.243Z,13.79
2023-03-18T15:18:45.335Z,13.78
2023-03-18T15:22:08.753Z,13.77
2023-03-18T15:25:29.654Z,13.76
2023-03-18T15:28:45.905Z,13.68
2023-03-18T15:32:13.700Z,13.62
2023-03-18T15:41:00.637Z,13.48
2023-03-18T15:44:25.368Z,13.46
2023-03-18T15:47:43.236Z,13.40
2023-03-18T15:51:09.965Z,13.36
2023-03-18T15:54:31.585Z,13.32
2023-03-18T15:57:50.143Z,13.28
2023-03-18T16:01:07.449Z,13.25
2023-03-18T16:04:26.860Z,13.20
2023-03-18T16:07:42.948Z,13.19
2023-03-18T16:11:05.075Z,13.15
2023-03-18T16:14:26.737Z,13.14
2023-03-18T16:17:46.695Z,13.14
2023-03-18T16:21:03.289Z,13.09
2023-03-18T16:24:19.378Z,13.05
2023-03-18T16:27:42.749Z,13.01
2023-03-18T16:31:01.746Z,12.95
2023-03-18T16:34:24.015Z,12.91
2023-03-18T16:37:40.217Z,12.85
2023-03-18T16:40:56.848Z,12.71
2023-03-18T16:44:20.241Z,12.45
2023-03-18T16:47:37.739Z,12.21
2023-03-18T16:50:57.478Z,12.04
2023-03-18T16:54:27.196Z,11.87
2023-03-18T16:57:44.300Z,11.65
2023-03-18T17:01:00.811Z,11.46
2023-03-18T17:04:30.307Z,11.32
2023-03-18T17:07:46.551Z,11.15
2023-03-18T17:11:06.179Z,10.97
2023-03-18T17:14:35.773Z,10.83
2023-03-18T17:17:53.828Z,10.70
2023-03-18T17:21:10.274Z,10.51
2023-03-18T17:24:26.672Z,10.40
2023-03-18T17:27:48.341Z,10.23
2023-03-18T17:31:05.052Z,10.10
2023-03-18T17:34:23.435Z,10.01
2023-03-18T17:37:39.505Z,9.94
2023-03-18T17:40:56.522Z,9.86
2023-03-18T17:44:31.446Z,9.69
2023-03-18T17:47:48.357Z,9.54
2023-03-18T17:51:07.986Z,9.35
2023-03-18T17:54:27.871Z,9.31
2023-03-18T17:57:44.610Z,9.17
2023-03-18T18:01:02.135Z,9.06
2023-03-18T18:04:25.548Z,9.09
2023-03-18T18:07:41.667Z,9.03
2023-03-18T18:11:00.120Z,8.86
2023-03-18T18:14:25.776Z,8.71
2023-03-18T18:17:42.234Z,8.63
2023-03-18T18:21:04.950Z,8.70
2023-03-18T18:24:28.429Z,8.74
2023-03-18T18:27:45.059Z,8.65
2023-03-18T18:31:03.713Z,8.53
2023-03-18T18:34:22.061Z,8.45
2023-03-18T18:37:40.927Z,8.31
2023-03-18T18:40:58.306Z,8.15
2023-03-18T18:44:19.874Z,8.11
2023-03-18T18:47:34.082Z,8.05
2023-03-18T18:50:51.046Z,7.95
2023-03-18T18:54:09.195Z,7.98
2023-03-18T18:57:34.082Z,7.80
2023-03-18T19:00:51.262Z,7.80
2023-03-18T19:04:08.605Z,7.75
2023-03-18T19:07:27.282Z,7.75
2023-03-18T19:10:46.558Z,7.74
2023-03-18T19:14:11.259Z,7.55
2023-03-18T19:17:30.523Z,7.60
2023-03-18T19:20:49.038Z,7.51
2023-03-18T19:24:09.076Z,7.48
2023-03-18T19:27:32.354Z,7.46
2023-03-18T19:30:48.619Z,7.42
2023-03-18T19:34:08.221Z,7.42
2023-03-18T19:37:30.104Z,7.35
2023-03-18T19:40:49.562Z,7.21
2023-03-18T19:44:17.705Z,7.16
2023-03-18T19:47:36.803Z,6.95
2023-03-18T19:50:55.507Z,6.87
2023-03-18T19:54:36.331Z,6.83
2023-03-18T19:57:55.036Z,6.75
2023-03-18T20:01:11.368Z,6.67
2023-03-18T20:04:31.501Z,6.60
2023-03-18T20:07:48.155Z,6.47
2023-03-18T20:11:04.646Z,6.42
2023-03-18T20:14:35.750Z,6.40
2023-03-18T20:17:55.406Z,6.44
2023-03-18T20:21:14.451Z,6.50
2023-03-18T20:24:36.024Z,6.50
2023-03-18T20:27:54.328Z,6.37
2023-03-18T20:31:12.677Z,6.26
2023-03-18T20:34:29.783Z,6.30
2023-03-18T20:37:47.218Z,6.20
2023-03-18T20:41:06.309Z,6.02
2023-03-18T20:44:22.496Z,6.05
2023-03-18T20:47:39.305Z,6.09
2023-03-18T20:50:56.778Z,5.94
2023-03-18T20:54:23.958Z,5.96
2023-03-18T20:57:48.958Z,5.99
2023-03-18T21:01:06.845Z,6.10
2023-03-18T21:04:23.933Z,6.27
2023-03-18T21:07:41.425Z,6.26
2023-03-18T21:11:02.094Z,6.07
2023-03-18T21:14:23.510Z,6.12
2023-03-18T21:17:42.044Z,6.04
2023-03-18T21:20:58.670Z,5.91
2023-03-18T21:24:32.441Z,5.89
2023-03-18T21:27:48.971Z,5.87
2023-03-18T21:31:06.819Z,5.83
2023-03-18T21:34:28.586Z,5.78
2023-03-18T21:37:45.904Z,5.76
2023-03-18T21:41:05.478Z,5.81
2023-03-18T21:44:21.731Z,5.82
2023-03-18T21:47:37.933Z,5.68
2023-03-18T21:50:57.649Z,5.63
2023-03-18T21:54:24.915Z,5.54
2023-03-18T21:57:43.827Z,5.49
2023-03-18T22:01:06.064Z,5.37
2023-03-18T22:04:23.115Z,5.23
2023-03-18T22:07:40.133Z,5.15
2023-03-18T22:10:58.746Z,5.23
2023-03-18T22:14:16.810Z,5.20
2023-03-18T22:17:38.479Z,5.28
2023-03-18T22:20:56.157Z,5.33
2023-03-18T22:24:14.910Z,5.14
2023-03-18T22:27:33.970Z,4.96
2023-03-18T22:30:52.829Z,5.00
2023-03-18T22:34:09.371Z,4.95
2023-03-18T22:37:29.764Z,4.90
2023-03-18T22:40:47.697Z,4.81
2023-03-18T22:44:07.134Z,4.74
2023-03-18T22:47:26.675Z,4.74
2023-03-18T22:50:42.246Z,4.71
2023-03-18T22:54:00.423Z,4.69
2023-03-18T22:57:23.666Z,4.75
2023-03-18T23:00:45.575Z,4.60
2023-03-18T23:04:01.683Z,4.49
2023-03-18T23:07:33.130Z,4.30
2023-03-18T23:10:50.571Z,4.29
2023-03-18T23:14:07.355Z,4.32
2023-03-18T23:17:27.488Z,4.19
2023-03-18T23:20:44.861Z,4.05
2023-03-18T23:24:01.578Z,3.97
2023-03-18T23:27:18.257Z,3.98
2023-03-18T23:30:34.640Z,4.07
2023-03-18T23:33:51.359Z,4.10
2023-03-18T23:37:07.936Z,4.08
2023-03-18T23:40:24.736Z,4.08
2023-03-18T23:43:41.132Z,4.07
2023-03-18T23:46:58.218Z,3.82
2023-03-18T23:50:17.824Z,3.65
2023-03-18T23:53:34.455Z,3.73
2023-03-18T23:56:51.491Z,3.65
